Jinghe, China
Current Conditions -  °F | °C
As of 2:00 AM on Friday 31 Oct 2014 (Local Time) from ZWWW Reporting Station
Scattered Clouds Scattered Clouds  
Wind Chill: 37°   Ceiling: Unl
Heat Index: 37°   Visibility: 6mi
Dew Point: 21°   Wind: 2mph
Humidity: 52%   Direction: NA
Pressure: 30.53"   Gusts: NA
Location:  44.62°N, 82.9°E
Report Text: ZWWW 301800Z VRB01MPS 9999 SCT046 03/M06 Q1034 NOSIG
Loading
Personal Weather Stations






























Interactive Weather Map
Tropical Storm Tracking
New forecast layout! Learn more

10-Day Weather Forecast

Advertisements
Track Severe Weather on mobile